Terminal Aerodrome Forecast
Issued by NWS

Home | Current Version | Previous Version | Text Only | Print | Product List | Glossary On
Versions: 1 2 3 4 5 6 7 8 9 10 11 12 13 14 15 16 17 18 19 20 21 22 23 24 25 26 27 28
000
FTUS44 KHGX 290522
TAFCXO
TAF
KCXO 290522Z 2906/3006 15014G24KT P6SM BKN022 OVC035
     FM290900 17010G16KT P6SM VCSH OVC018
     FM291400 15013G22KT P6SM VCTS BKN020CB BKN030 OVC250
      TEMPO 2916/2919 VRB10G25KT 4SM -TSRA BKN025CB OVC060
     FM292200 18011KT P6SM OVC050
     FM300200 19005KT P6SM BKN250=

USA.gov is the U.S. government's official web portal to all federal, state and local government web resources and services.